FZRC weather

Mukoy Airport
Mukoy, Katanga Province, Congo (Kinshasa)

Public forecast

Using degrees Celsius for public forecast. Weather courtesy of forecast.io.

Closest aviation weather report (METAR) to Mukoy Airport

Report is more than 6 hours old.

Closest report is Mpanda Airport, 158.7 nm (293.9 km) ENE. Retrieved 2020/05/04 15:00 UTC (21 days ago):

HTMP 041500Z 18008KT 9999 FEW024 28/28 Q1017

Closest aviation forecast (TAF) to Mukoy Airport

Forecast is more than 12 hours old.

Closest forecast is Songwe Airport, 284.3 nm (526.4 km) ESE. Retrieved 2020-04-24 00:00 UTC (1 month ago):

TAF HTGW 232300Z 2400/2424 12010KT 9999 SCT020 FEW021CB